createdAt,value
2022-09-24T00:02:07.133Z,50.80
2022-09-24T00:04:36.714Z,50.96
2022-09-24T00:07:04.743Z,50.84
2022-09-24T00:09:32.774Z,50.89
2022-09-24T00:12:02.841Z,50.82
2022-09-24T00:14:32.144Z,51.02
2022-09-24T00:17:00.210Z,51.12
2022-09-24T00:19:30.247Z,51.23
2022-09-24T00:21:58.186Z,50.87
2022-09-24T00:24:42.838Z,51.29
2022-09-24T00:27:10.777Z,51.28
2022-09-24T00:29:40.061Z,51.09
2022-09-24T00:32:08.853Z,51.37
2022-09-24T00:34:36.811Z,51.58
2022-09-24T00:37:05.222Z,51.76
2022-09-24T00:39:33.127Z,51.72
2022-09-24T00:42:01.096Z,51.81
2022-09-24T00:44:54.964Z,51.90
2022-09-24T00:47:31.604Z,51.87
2022-09-24T00:50:11.455Z,51.75
2022-09-24T00:52:45.361Z,51.94
2022-09-24T00:55:13.469Z,51.91
2022-09-24T00:57:41.388Z,51.87
2022-09-24T01:00:12.210Z,51.78
2022-09-24T01:02:40.608Z,52.02
2022-09-24T01:05:10.261Z,52.33
2022-09-24T01:07:38.635Z,52.36
2022-09-24T01:10:07.182Z,52.02
2022-09-24T01:12:38.715Z,52.23
2022-09-24T01:15:18.317Z,52.06
2022-09-24T01:17:50.405Z,52.34
2022-09-24T01:20:37.594Z,52.63
2022-09-24T01:23:15.957Z,52.57
2022-09-24T01:25:48.292Z,52.35
2022-09-24T01:28:26.598Z,52.40
2022-09-24T01:30:59.673Z,52.72
2022-09-24T01:33:28.586Z,52.78
2022-09-24T01:35:57.239Z,52.83
2022-09-24T01:38:27.364Z,52.81
2022-09-24T01:40:55.342Z,52.59
2022-09-24T01:43:25.340Z,52.79
2022-09-24T01:45:53.580Z,52.67
2022-09-24T01:48:24.554Z,52.65
2022-09-24T01:50:56.201Z,52.78
2022-09-24T01:53:26.017Z,52.79
2022-09-24T01:55:56.131Z,52.92
2022-09-24T01:58:27.977Z,52.59
2022-09-24T02:01:08.894Z,52.80
2022-09-24T02:03:41.521Z,52.35
2022-09-24T02:06:14.627Z,52.50
2022-09-24T02:08:46.472Z,52.36
2022-09-24T02:11:16.411Z,52.39
2022-09-24T02:13:46.623Z,52.54
2022-09-24T02:16:16.337Z,52.21
2022-09-24T02:18:47.072Z,52.69
2022-09-24T02:21:16.344Z,52.23
2022-09-24T02:23:48.298Z,52.22
2022-09-24T02:26:16.281Z,52.17
2022-09-24T02:28:44.207Z,52.45
2022-09-24T02:31:14.348Z,52.61
2022-09-24T02:34:01.209Z,52.26
2022-09-24T02:36:30.629Z,52.81
2022-09-24T02:38:58.523Z,52.69
2022-09-24T02:41:26.458Z,52.56
2022-09-24T02:43:54.397Z,52.64
2022-09-24T02:46:22.415Z,52.36
2022-09-24T02:48:50.372Z,52.54
2022-09-24T02:51:18.243Z,52.39
2022-09-24T02:53:47.538Z,52.40
2022-09-24T02:56:15.743Z,52.77
2022-09-24T02:58:44.197Z,52.93
2022-09-24T03:01:12.293Z,52.70
2022-09-24T03:03:40.221Z,52.50
2022-09-24T03:06:08.551Z,52.50
2022-09-24T03:08:36.878Z,52.55
2022-09-24T03:11:06.498Z,52.88
2022-09-24T03:13:34.441Z,52.64
2022-09-24T03:16:02.758Z,52.39
2022-09-24T03:18:30.725Z,52.55
2022-09-24T03:20:58.784Z,52.80
2022-09-24T03:23:26.889Z,52.50
2022-09-24T03:25:54.780Z,52.78
2022-09-24T03:28:24.194Z,52.42
2022-09-24T03:31:02.947Z,52.32
2022-09-24T03:33:31.794Z,52.66
2022-09-24T03:36:00.548Z,52.74
2022-09-24T03:38:29.271Z,52.25
2022-09-24T03:40:57.320Z,52.54
2022-09-24T03:43:26.698Z,52.58
2022-09-24T03:45:55.331Z,52.57
2022-09-24T03:48:23.548Z,52.35
2022-09-24T03:50:51.467Z,52.54
2022-09-24T03:53:19.417Z,52.20
2022-09-24T03:55:48.348Z,52.18
2022-09-24T03:58:16.257Z,52.33
2022-09-24T04:00:45.545Z,52.28
2022-09-24T04:03:13.512Z,52.01
2022-09-24T04:05:41.449Z,51.97
2022-09-24T04:08:09.365Z,52.32
2022-09-24T04:10:37.303Z,52.16
2022-09-24T04:13:05.692Z,52.25
2022-09-24T04:15:33.848Z,52.32
2022-09-24T04:18:03.390Z,52.05
2022-09-24T04:20:31.493Z,51.64
2022-09-24T04:22:59.887Z,51.64
2022-09-24T04:25:28.810Z,51.78
2022-09-24T04:27:57.666Z,51.33
2022-09-24T04:30:25.856Z,51.68
2022-09-24T04:32:53.762Z,51.49
2022-09-24T04:35:24.037Z,51.34
2022-09-24T04:37:51.956Z,51.18
2022-09-24T04:40:20.119Z,51.46
2022-09-24T04:42:48.480Z,51.60
2022-09-24T04:45:19.607Z,51.47
2022-09-24T04:47:52.240Z,51.56
2022-09-24T04:50:20.462Z,51.42
2022-09-24T04:52:49.775Z,51.49
2022-09-24T04:55:18.156Z,51.66
2022-09-24T04:57:46.040Z,51.75
2022-09-24T05:00:16.069Z,51.79
2022-09-24T05:02:44.012Z,52.24
2022-09-24T05:05:12.345Z,52.08
2022-09-24T05:07:40.324Z,51.88
2022-09-24T05:10:10.225Z,52.08
2022-09-24T05:12:38.173Z,52.13
2022-09-24T05:15:07.244Z,52.43
2022-09-24T05:17:35.360Z,52.19
2022-09-24T05:20:03.392Z,52.32
2022-09-24T05:22:31.764Z,52.32
2022-09-24T05:24:59.692Z,52.50
2022-09-24T05:27:28.018Z,52.25
2022-09-24T05:29:56.131Z,52.17
2022-09-24T05:32:24.064Z,52.00
2022-09-24T05:34:52.419Z,51.91
2022-09-24T05:37:20.300Z,51.93
2022-09-24T05:39:48.244Z,51.91
2022-09-24T05:42:16.235Z,51.96
2022-09-24T05:44:49.760Z,52.16
2022-09-24T05:47:19.328Z,52.15
2022-09-24T05:49:47.206Z,52.22
2022-09-24T05:52:15.081Z,51.97
2022-09-24T05:54:43.017Z,51.53
2022-09-24T05:57:10.924Z,51.40
2022-09-24T05:59:38.826Z,51.34
2022-09-24T06:02:08.229Z,51.73
2022-09-24T06:04:36.184Z,51.64
2022-09-24T06:07:04.104Z,51.59
2022-09-24T06:09:32.010Z,51.64
2022-09-24T06:12:00.001Z,51.15
2022-09-24T06:14:28.534Z,51.65
2022-09-24T06:16:56.514Z,51.52
2022-09-24T06:19:25.838Z,51.67
2022-09-24T06:21:53.719Z,51.62
2022-09-24T06:24:22.476Z,51.44
2022-09-24T06:26:50.330Z,51.47
2022-09-24T06:29:18.221Z,51.64
2022-09-24T06:31:46.165Z,51.75
2022-09-24T06:34:14.572Z,51.65
2022-09-24T06:36:43.901Z,51.60
2022-09-24T06:39:11.880Z,51.66
2022-09-24T06:41:39.849Z,51.94
2022-09-24T06:44:07.736Z,51.63
2022-09-24T06:46:35.771Z,51.73
2022-09-24T06:49:03.840Z,51.75
2022-09-24T06:51:31.747Z,51.76
2022-09-24T06:54:01.334Z,51.75
2022-09-24T06:56:31.089Z,51.97
2022-09-24T06:58:58.965Z,51.79
2022-09-24T07:01:26.990Z,51.94
2022-09-24T07:03:55.110Z,51.63
2022-09-24T07:06:22.989Z,51.43
2022-09-24T07:08:52.159Z,51.40
2022-09-24T07:11:21.469Z,51.50
2022-09-24T07:13:49.461Z,51.64
2022-09-24T07:16:17.437Z,51.25
2022-09-24T07:18:45.335Z,51.46
2022-09-24T07:21:13.245Z,51.40
2022-09-24T07:23:41.364Z,51.15
2022-09-24T07:26:09.290Z,50.83
2022-09-24T07:28:38.665Z,51.03
2022-09-24T07:31:06.629Z,50.53
2022-09-24T07:33:34.632Z,50.84
2022-09-24T07:36:06.801Z,50.88
2022-09-24T07:38:36.340Z,50.89
2022-09-24T07:41:04.660Z,50.95
2022-09-24T07:43:33.323Z,50.81
2022-09-24T07:46:02.809Z,50.69
2022-09-24T07:48:30.770Z,50.59
2022-09-24T07:53:26.783Z,50.71
2022-09-24T07:55:56.368Z,50.57
2022-09-24T07:58:24.455Z,50.29
2022-09-24T08:00:52.408Z,50.21
2022-09-24T08:03:22.378Z,50.21
2022-09-24T08:05:50.565Z,50.20
2022-09-24T08:08:20.586Z,49.99
2022-09-24T08:10:48.991Z,49.88
2022-09-24T08:13:16.929Z,50.01
2022-09-24T08:15:44.895Z,49.95
2022-09-24T08:18:12.845Z,49.94
2022-09-24T08:20:42.155Z,49.72
2022-09-24T08:23:11.139Z,49.19
2022-09-24T08:25:39.165Z,49.23
2022-09-24T08:28:07.379Z,48.72
2022-09-24T08:30:35.479Z,49.14
2022-09-24T08:33:05.120Z,48.86
2022-09-24T08:35:33.089Z,48.74
2022-09-24T08:38:03.479Z,48.50
2022-09-24T08:40:32.732Z,48.45
2022-09-24T08:43:07.480Z,48.15
2022-09-24T08:45:57.948Z,48.13
2022-09-24T08:48:26.283Z,48.26
2022-09-24T08:50:58.042Z,48.05
2022-09-24T08:53:28.215Z,47.87
2022-09-24T08:55:57.034Z,47.63
2022-09-24T08:58:30.337Z,47.34
2022-09-24T09:01:02.156Z,47.26
2022-09-24T09:03:34.296Z,46.59
2022-09-24T09:06:03.839Z,46.47
2022-09-24T09:11:29.697Z,45.92
2022-09-24T09:13:58.863Z,45.64
2022-09-24T09:16:29.153Z,45.31
2022-09-24T09:18:59.220Z,45.23
2022-09-24T09:21:29.389Z,45.10
2022-09-24T09:23:59.185Z,45.23
2022-09-24T09:26:27.342Z,45.08
2022-09-24T09:28:58.032Z,44.91
2022-09-24T09:31:44.553Z,45.10
2022-09-24T09:34:34.801Z,45.07
2022-09-24T09:37:11.706Z,44.50
2022-09-24T09:39:46.817Z,44.51
2022-09-24T09:42:28.017Z,44.58
2022-09-24T09:44:56.060Z,44.45
2022-09-24T09:47:36.008Z,44.22
2022-09-24T09:50:07.817Z,44.04
2022-09-24T09:52:36.955Z,44.10
2022-09-24T09:55:07.033Z,44.18
2022-09-24T09:57:35.571Z,44.18
2022-09-24T10:00:03.649Z,44.36
2022-09-24T10:02:34.017Z,44.19
2022-09-24T10:05:03.316Z,44.31
2022-09-24T10:07:32.434Z,44.27
2022-09-24T10:10:02.964Z,44.08
2022-09-24T10:12:32.295Z,44.02
2022-09-24T10:15:01.679Z,43.76
2022-09-24T10:17:33.382Z,43.60
2022-09-24T10:20:02.553Z,43.55
2022-09-24T10:22:30.524Z,43.57
2022-09-24T10:24:59.876Z,43.34
2022-09-24T10:27:32.915Z,42.63
2022-09-24T10:30:18.786Z,42.43
2022-09-24T10:32:48.949Z,41.91
2022-09-24T10:35:26.439Z,41.68
2022-09-24T10:37:54.818Z,41.41
2022-09-24T10:40:25.804Z,41.17
2022-09-24T10:43:01.538Z,41.35
2022-09-24T10:46:03.171Z,40.88
2022-09-24T10:48:35.963Z,40.92
2022-09-24T10:51:07.728Z,40.26
2022-09-24T10:53:42.232Z,39.93
2022-09-24T10:56:16.145Z,39.75
2022-09-24T10:59:11.027Z,41.24
2022-09-24T11:01:42.320Z,42.74
2022-09-24T11:04:36.392Z,42.90
2022-09-24T11:07:38.680Z,42.48
2022-09-24T11:10:14.395Z,40.72
2022-09-24T11:12:47.098Z,40.18
2022-09-24T11:15:29.495Z,39.97
2022-09-24T11:18:05.616Z,39.34
2022-09-24T11:20:36.321Z,38.12
2022-09-24T11:23:42.371Z,37.42
2022-09-24T11:26:15.685Z,36.49
2022-09-24T11:29:07.696Z,35.56
2022-09-24T11:31:41.095Z,34.68
2022-09-24T11:34:27.369Z,34.93
2022-09-24T11:37:02.849Z,33.84
2022-09-24T11:39:39.043Z,34.55
2022-09-24T11:42:10.557Z,33.29
2022-09-24T11:45:12.025Z,33.07
2022-09-24T11:48:08.982Z,31.96
2022-09-24T11:50:46.709Z,32.08
2022-09-24T11:53:16.556Z,32.82
2022-09-24T11:55:47.554Z,32.53
2022-09-24T11:58:17.654Z,31.30
2022-09-24T12:00:48.260Z,32.01
2022-09-24T12:03:23.635Z,31.74
2022-09-24T12:05:56.886Z,31.85
2022-09-24T12:08:27.723Z,31.69
2022-09-24T12:10:58.248Z,31.08
2022-09-24T12:13:27.572Z,30.84
2022-09-24T12:15:57.199Z,31.16
2022-09-24T12:18:27.517Z,31.17
2022-09-24T12:20:57.928Z,30.84
2022-09-24T12:23:29.507Z,30.26
2022-09-24T12:25:59.144Z,30.60
2022-09-24T12:28:45.207Z,30.28
2022-09-24T12:31:32.327Z,30.29
2022-09-24T12:34:03.981Z,30.02
2022-09-24T12:36:38.779Z,29.67
2022-09-24T12:39:07.804Z,29.51
2022-09-24T12:41:35.825Z,29.18
2022-09-24T12:44:07.002Z,29.17
2022-09-24T12:46:39.459Z,29.10
2022-09-24T12:49:17.675Z,28.33
2022-09-24T12:51:45.620Z,28.22
2022-09-24T12:54:25.657Z,27.54
2022-09-24T12:56:53.650Z,27.49
2022-09-24T12:59:27.900Z,27.97
2022-09-24T13:01:56.030Z,28.20
2022-09-24T13:04:30.244Z,27.52
2022-09-24T13:06:58.300Z,27.29
2022-09-24T13:09:33.911Z,26.94
2022-09-24T13:12:03.799Z,26.76
2022-09-24T13:14:32.098Z,26.97
2022-09-24T13:17:00.185Z,26.47
2022-09-24T13:19:34.969Z,27.22
2022-09-24T13:22:02.945Z,27.69
2022-09-24T13:24:31.736Z,27.48
2022-09-24T13:27:22.135Z,27.42
2022-09-24T13:29:54.572Z,27.22
2022-09-24T13:32:22.523Z,27.20
2022-09-24T13:34:51.858Z,27.48
2022-09-24T13:37:22.011Z,27.23
2022-09-24T13:39:52.617Z,27.66
2022-09-24T13:42:21.301Z,27.21
2022-09-24T13:44:49.667Z,27.07
2022-09-24T13:47:24.245Z,26.61
2022-09-24T13:49:53.585Z,26.44
2022-09-24T13:52:28.072Z,26.72
2022-09-24T13:54:57.488Z,27.14
2022-09-24T13:57:26.313Z,27.19
2022-09-24T14:00:15.642Z,27.66
2022-09-24T14:02:45.120Z,28.19
2022-09-24T14:05:17.577Z,28.83
2022-09-24T14:07:54.277Z,29.30
2022-09-24T14:10:22.763Z,30.14
2022-09-24T14:13:01.092Z,30.49
2022-09-24T14:15:29.036Z,31.32
2022-09-24T14:17:58.555Z,31.56
2022-09-24T14:20:29.280Z,31.96
2022-09-24T14:22:57.237Z,32.79
2022-09-24T14:25:28.150Z,34.03
2022-09-24T14:27:56.078Z,33.62
2022-09-24T14:30:24.712Z,33.79
2022-09-24T14:32:53.055Z,33.90
2022-09-24T14:35:26.555Z,33.18
2022-09-24T14:38:00.158Z,32.47
2022-09-24T14:40:28.172Z,31.79
2022-09-24T14:42:56.866Z,30.27
2022-09-24T14:45:26.015Z,29.61
2022-09-24T14:48:01.289Z,28.58
2022-09-24T14:50:35.478Z,28.12
2022-09-24T14:53:13.237Z,28.14
2022-09-24T14:55:42.059Z,27.63
2022-09-24T14:58:24.284Z,27.00
2022-09-24T15:00:54.742Z,26.63
2022-09-24T15:03:28.055Z,26.45
2022-09-24T15:06:07.057Z,26.39
2022-09-24T15:08:36.631Z,25.68
2022-09-24T15:11:05.255Z,26.22
2022-09-24T15:13:33.873Z,26.62
2022-09-24T15:16:06.383Z,26.38
2022-09-24T15:18:35.405Z,26.75
2022-09-24T15:21:06.312Z,28.09
2022-09-24T15:23:34.405Z,28.53
2022-09-24T15:26:03.678Z,28.09
2022-09-24T15:28:31.947Z,28.11
2022-09-24T15:30:59.959Z,27.72
2022-09-24T15:33:28.064Z,28.03
2022-09-24T15:35:56.058Z,28.76
2022-09-24T15:38:24.060Z,28.78
2022-09-24T15:40:56.839Z,29.33
2022-09-24T15:43:26.350Z,29.87
2022-09-24T15:45:54.404Z,30.09
2022-09-24T15:48:22.330Z,29.83
2022-09-24T15:50:51.756Z,30.34
2022-09-24T15:53:21.528Z,30.60
2022-09-24T15:55:50.083Z,30.93
2022-09-24T15:58:19.757Z,31.15
2022-09-24T16:00:49.128Z,31.22
2022-09-24T16:03:20.059Z,31.07
2022-09-24T16:05:48.483Z,31.06
2022-09-24T16:08:16.369Z,31.56
2022-09-24T16:10:44.302Z,31.45
2022-09-24T16:13:12.341Z,31.37
2022-09-24T16:15:40.297Z,31.39
2022-09-24T16:18:10.835Z,31.62
2022-09-24T16:20:39.690Z,31.46
2022-09-24T16:23:07.697Z,31.77
2022-09-24T16:25:35.820Z,31.85
2022-09-24T16:28:03.804Z,32.11
2022-09-24T16:30:36.246Z,32.22
2022-09-24T16:33:06.144Z,32.23
2022-09-24T16:35:35.470Z,32.43
2022-09-24T16:38:06.100Z,32.58
2022-09-24T16:40:34.125Z,32.64
2022-09-24T16:43:02.094Z,33.03
2022-09-24T16:45:30.038Z,33.71
2022-09-24T16:47:57.960Z,34.20
2022-09-24T16:50:26.081Z,34.85
2022-09-24T16:52:55.533Z,35.70
2022-09-24T16:55:24.549Z,36.79
2022-09-24T16:57:52.801Z,37.56
2022-09-24T17:00:20.961Z,38.18
2022-09-24T17:02:49.111Z,38.56
2022-09-24T17:05:17.750Z,39.42
2022-09-24T17:07:46.183Z,39.95
2022-09-24T17:10:15.975Z,40.49
2022-09-24T17:12:44.825Z,40.42
2022-09-24T17:15:14.130Z,40.50
2022-09-24T17:17:49.135Z,40.85
2022-09-24T17:20:18.090Z,40.19
2022-09-24T17:22:47.483Z,39.98
2022-09-24T17:25:16.853Z,39.78
2022-09-24T17:27:44.992Z,39.76
2022-09-24T17:30:13.757Z,39.76
